createdAt,value
2023-05-03T00:00:08.799Z,26.36
2023-05-03T00:02:57.644Z,26.49
2023-05-03T00:05:26.551Z,26.38
2023-05-03T00:07:54.731Z,26.37
2023-05-03T00:10:23.155Z,26.37
2023-05-03T00:12:51.540Z,26.35
2023-05-03T00:15:19.702Z,26.36
2023-05-03T00:17:48.017Z,26.36
2023-05-03T00:20:16.262Z,26.35
2023-05-03T00:22:44.599Z,26.34
2023-05-03T00:25:12.948Z,26.35
2023-05-03T00:27:41.182Z,26.35
2023-05-03T00:30:10.604Z,26.35
2023-05-03T00:32:38.909Z,26.34
2023-05-03T00:35:07.649Z,26.35
2023-05-03T00:37:37.294Z,26.32
2023-05-03T00:40:07.556Z,26.32
2023-05-03T00:42:37.124Z,26.33
2023-05-03T00:45:06.929Z,26.33
2023-05-03T00:47:36.865Z,26.32
2023-05-03T00:50:06.610Z,26.31
2023-05-03T00:52:35.053Z,26.31
2023-05-03T00:55:03.526Z,26.31
2023-05-03T00:57:31.855Z,26.30
2023-05-03T01:00:00.809Z,26.29
2023-05-03T01:02:29.565Z,26.29
2023-05-03T01:04:57.888Z,26.29
2023-05-03T01:07:44.309Z,26.28
2023-05-03T01:10:23.731Z,26.36
2023-05-03T01:13:26.393Z,26.33
2023-05-03T01:16:07.221Z,26.44
2023-05-03T01:18:40.014Z,26.34
2023-05-03T01:21:09.771Z,26.29
2023-05-03T01:23:46.556Z,26.29
2023-05-03T01:26:16.702Z,26.31
2023-05-03T01:28:44.978Z,26.27
2023-05-03T01:31:28.963Z,26.27
2023-05-03T01:34:15.765Z,26.35
2023-05-03T01:36:44.982Z,26.38
2023-05-03T01:39:19.146Z,26.29
2023-05-03T01:41:50.712Z,26.29
2023-05-03T01:44:19.967Z,26.27
2023-05-03T01:46:48.253Z,26.26
2023-05-03T01:49:16.778Z,26.25
2023-05-03T01:51:44.959Z,26.25
2023-05-03T01:54:13.182Z,26.24
2023-05-03T01:56:41.393Z,26.23
2023-05-03T01:59:09.579Z,26.23
2023-05-03T02:01:37.840Z,26.22
2023-05-03T02:04:06.142Z,26.22
2023-05-03T02:06:34.400Z,26.22
2023-05-03T02:09:02.559Z,26.21
2023-05-03T02:11:30.825Z,26.22
2023-05-03T02:13:59.031Z,26.22
2023-05-03T02:16:27.858Z,26.20
2023-05-03T02:18:59.682Z,26.20
2023-05-03T02:21:28.050Z,26.21
2023-05-03T02:23:56.345Z,26.21
2023-05-03T02:26:24.560Z,26.21
2023-05-03T02:28:52.971Z,26.20
2023-05-03T02:31:21.255Z,26.19
2023-05-03T02:33:49.419Z,26.20
2023-05-03T02:36:17.616Z,26.20
2023-05-03T02:38:45.909Z,26.20
2023-05-03T02:41:14.465Z,26.19
2023-05-03T02:43:42.658Z,26.20
2023-05-03T02:46:11.018Z,26.20
2023-05-03T02:48:39.324Z,26.19
2023-05-03T02:51:07.707Z,26.19
2023-05-03T02:53:36.116Z,26.19
2023-05-03T02:56:04.392Z,26.19
2023-05-03T02:58:32.561Z,26.17
2023-05-03T03:01:00.747Z,26.17
2023-05-03T03:03:28.971Z,26.18
2023-05-03T03:05:57.255Z,26.17
2023-05-03T03:08:25.565Z,26.17
2023-05-03T03:10:53.918Z,26.17
2023-05-03T03:13:22.159Z,26.17
2023-05-03T03:15:50.405Z,26.17
2023-05-03T03:18:19.827Z,26.16
2023-05-03T03:20:48.184Z,26.17
2023-05-03T03:23:16.404Z,26.16
2023-05-03T03:25:44.619Z,26.16
2023-05-03T03:28:12.849Z,26.16
2023-05-03T03:30:41.101Z,26.15
2023-05-03T03:33:09.364Z,26.16
2023-05-03T03:35:38.289Z,26.16
2023-05-03T03:38:06.919Z,26.15
2023-05-03T03:40:35.141Z,26.16
2023-05-03T03:43:03.609Z,26.16
2023-05-03T03:45:31.784Z,26.15
2023-05-03T03:48:00.552Z,26.16
2023-05-03T03:50:28.823Z,26.15
2023-05-03T03:52:57.012Z,26.15
2023-05-03T03:55:25.418Z,26.17
2023-05-03T03:57:53.558Z,26.16
2023-05-03T04:00:21.802Z,26.17
2023-05-03T04:02:50.131Z,26.17
2023-05-03T04:05:18.669Z,26.18
2023-05-03T04:07:47.364Z,26.17
2023-05-03T04:10:15.708Z,26.18
2023-05-03T04:12:43.883Z,26.17
2023-05-03T04:15:12.480Z,26.18
2023-05-03T04:17:40.704Z,26.18
2023-05-03T04:20:11.739Z,26.19
2023-05-03T04:22:40.599Z,26.18
2023-05-03T04:25:14.253Z,26.18
2023-05-03T04:27:42.778Z,26.21
2023-05-03T04:30:12.162Z,26.20
2023-05-03T04:32:40.860Z,26.21
2023-05-03T04:35:11.048Z,26.22
2023-05-03T04:37:40.694Z,26.24
2023-05-03T04:40:10.824Z,26.28
2023-05-03T04:42:39.566Z,26.32
2023-05-03T04:45:09.972Z,26.35
2023-05-03T04:47:38.332Z,26.38
2023-05-03T04:50:09.152Z,26.41
2023-05-03T04:52:38.076Z,26.45
2023-05-03T04:55:06.665Z,26.49
2023-05-03T04:57:35.328Z,26.53
2023-05-03T05:00:04.592Z,26.57
2023-05-03T05:02:33.046Z,26.60
2023-05-03T05:05:01.256Z,26.63
2023-05-03T05:07:29.925Z,26.63
2023-05-03T05:09:58.163Z,26.64
2023-05-03T05:12:26.824Z,26.65
2023-05-03T05:14:55.048Z,26.67
2023-05-03T05:17:23.835Z,26.67
2023-05-03T05:19:52.336Z,26.67
2023-05-03T05:22:21.166Z,26.69
2023-05-03T05:24:49.440Z,26.69
2023-05-03T05:27:17.684Z,26.70
2023-05-03T05:29:46.018Z,26.72
2023-05-03T05:32:14.324Z,26.72
2023-05-03T05:34:45.600Z,26.73
2023-05-03T05:37:14.083Z,26.74
2023-05-03T05:39:42.316Z,26.72
2023-05-03T05:42:10.780Z,26.73
2023-05-03T05:44:39.059Z,26.72
2023-05-03T05:47:08.982Z,26.72
2023-05-03T05:49:37.265Z,26.71
2023-05-03T05:52:05.732Z,26.72
2023-05-03T05:54:34.017Z,26.73
2023-05-03T05:57:02.758Z,26.72
2023-05-03T05:59:31.666Z,26.73
2023-05-03T06:02:00.516Z,26.74
2023-05-03T06:04:29.177Z,26.73
2023-05-03T06:06:57.418Z,26.73
2023-05-03T06:09:25.794Z,26.73
2023-05-03T06:11:54.100Z,26.74
2023-05-03T06:14:22.512Z,26.74
2023-05-03T06:16:51.850Z,26.75
2023-05-03T06:19:20.067Z,26.77
2023-05-03T06:21:48.245Z,26.76
2023-05-03T06:24:21.401Z,26.77
2023-05-03T06:26:49.988Z,26.79
2023-05-03T06:29:18.449Z,26.78
2023-05-03T06:31:46.675Z,26.81
2023-05-03T06:34:20.263Z,26.81
2023-05-03T06:36:49.462Z,26.84
2023-05-03T06:39:18.360Z,26.84
2023-05-03T06:41:46.640Z,26.86
2023-05-03T06:44:14.835Z,26.86
2023-05-03T06:46:43.108Z,26.86
2023-05-03T06:49:11.337Z,26.86
2023-05-03T06:51:39.596Z,26.86
2023-05-03T06:54:09.539Z,26.86
2023-05-03T06:56:37.744Z,26.87
2023-05-03T06:59:06.286Z,26.87
2023-05-03T07:01:35.257Z,26.87
2023-05-03T07:04:03.662Z,26.88
2023-05-03T07:06:37.767Z,26.88
2023-05-03T07:09:12.728Z,26.95
2023-05-03T07:11:47.438Z,26.90
2023-05-03T07:14:16.661Z,26.91
2023-05-03T07:16:44.930Z,26.90
2023-05-03T07:19:13.160Z,26.91
2023-05-03T07:21:41.363Z,26.91
2023-05-03T07:24:12.979Z,26.93
2023-05-03T07:26:43.657Z,26.92
2023-05-03T07:29:12.625Z,26.93
2023-05-03T07:31:40.866Z,26.94
2023-05-03T07:34:09.036Z,26.95
2023-05-03T07:36:38.206Z,26.97
2023-05-03T07:39:06.540Z,27.00
2023-05-03T07:41:34.732Z,26.97
2023-05-03T07:44:02.950Z,26.95
2023-05-03T07:46:35.558Z,26.95
2023-05-03T07:49:05.391Z,26.94
2023-05-03T07:51:37.408Z,26.93
2023-05-03T07:54:06.218Z,26.95
2023-05-03T07:56:34.534Z,26.94
2023-05-03T07:59:09.481Z,26.95
2023-05-03T08:01:38.718Z,26.97
2023-05-03T08:04:07.233Z,26.97
2023-05-03T08:06:36.035Z,26.98
2023-05-03T08:09:07.500Z,26.98
2023-05-03T08:11:35.864Z,26.99
2023-05-03T08:14:04.071Z,26.99
2023-05-03T08:16:32.279Z,27.01
2023-05-03T08:19:00.615Z,27.00
2023-05-03T08:21:28.875Z,27.01
2023-05-03T08:23:57.369Z,27.01
2023-05-03T08:26:26.223Z,27.02
2023-05-03T08:28:54.887Z,27.01
2023-05-03T08:31:23.129Z,27.04
2023-05-03T08:33:51.925Z,27.04
2023-05-03T08:36:20.194Z,27.02
2023-05-03T08:38:48.464Z,27.04
2023-05-03T08:41:26.312Z,27.03
2023-05-03T08:43:55.649Z,27.08
2023-05-03T08:46:26.224Z,27.06
2023-05-03T08:48:55.340Z,27.05
2023-05-03T08:51:25.142Z,27.06
2023-05-03T08:53:53.409Z,27.06
2023-05-03T08:56:32.612Z,27.07
2023-05-03T08:59:07.788Z,27.11
2023-05-03T09:01:37.528Z,27.12
2023-05-03T09:04:07.185Z,27.11
2023-05-03T09:06:36.968Z,27.11
2023-05-03T09:09:09.932Z,27.15
2023-05-03T09:11:39.261Z,27.13
2023-05-03T09:14:15.411Z,27.11
2023-05-03T09:16:45.881Z,27.19
2023-05-03T09:19:15.989Z,27.20
2023-05-03T09:21:47.393Z,27.23
2023-05-03T09:24:18.098Z,27.26
2023-05-03T09:26:47.628Z,27.26
2023-05-03T09:29:30.376Z,27.24
2023-05-03T09:32:01.043Z,27.30
2023-05-03T09:34:29.553Z,27.24
2023-05-03T09:36:58.158Z,27.23
2023-05-03T09:39:26.684Z,27.20
2023-05-03T09:41:54.982Z,27.21
2023-05-03T09:44:49.088Z,27.21
2023-05-03T09:47:18.825Z,27.31
2023-05-03T09:49:47.217Z,27.18
2023-05-03T09:52:15.419Z,27.18
2023-05-03T09:54:44.327Z,27.17
2023-05-03T09:57:14.958Z,27.15
2023-05-03T09:59:46.264Z,27.14
2023-05-03T10:02:15.144Z,27.15
2023-05-03T10:04:50.115Z,27.15
2023-05-03T10:07:19.064Z,27.18
2023-05-03T10:09:48.340Z,27.16
2023-05-03T10:12:19.260Z,27.15
2023-05-03T10:14:48.949Z,27.15
2023-05-03T10:17:45.648Z,27.14
2023-05-03T10:20:23.224Z,27.30
2023-05-03T10:23:06.762Z,27.18
2023-05-03T10:25:37.279Z,27.19
2023-05-03T10:28:09.721Z,27.13
2023-05-03T10:30:39.697Z,27.12
2023-05-03T10:33:13.699Z,27.12
2023-05-03T10:35:44.131Z,27.12
2023-05-03T10:38:15.886Z,27.10
2023-05-03T10:40:44.692Z,27.12
2023-05-03T10:43:31.214Z,27.09
2023-05-03T10:46:06.925Z,27.17
2023-05-03T10:48:35.670Z,27.11
2023-05-03T10:51:37.506Z,27.08
2023-05-03T10:54:05.971Z,27.22
2023-05-03T10:56:34.179Z,27.07
2023-05-03T10:59:02.825Z,27.08
2023-05-03T11:01:32.313Z,27.07
2023-05-03T11:04:21.542Z,27.06
2023-05-03T11:06:52.238Z,27.16
2023-05-03T11:09:20.887Z,27.06
2023-05-03T11:11:49.129Z,27.05
2023-05-03T11:14:17.313Z,27.06
2023-05-03T11:16:50.922Z,27.05
2023-05-03T11:19:19.312Z,27.07
2023-05-03T11:21:48.486Z,27.06
2023-05-03T11:24:17.222Z,27.06
2023-05-03T11:26:45.539Z,27.05
2023-05-03T11:29:15.121Z,27.05
2023-05-03T11:31:43.933Z,27.07
2023-05-03T11:34:13.317Z,27.05
2023-05-03T11:36:42.818Z,27.05
2023-05-03T11:39:14.777Z,27.05
2023-05-03T11:41:43.136Z,27.05
2023-05-03T11:44:17.225Z,27.04
2023-05-03T11:46:47.444Z,27.05
2023-05-03T11:49:20.041Z,27.04
2023-05-03T11:51:51.705Z,27.05
2023-05-03T11:54:25.962Z,27.05
2023-05-03T11:56:59.747Z,27.05
2023-05-03T11:59:36.141Z,27.03
2023-05-03T12:02:05.915Z,27.04
2023-05-03T12:04:35.054Z,27.02
2023-05-03T12:07:05.176Z,27.02
2023-05-03T12:09:35.841Z,27.03
2023-05-03T12:12:05.910Z,27.02
2023-05-03T12:15:00.268Z,27.01
2023-05-03T12:17:40.006Z,27.11
2023-05-03T12:22:58.447Z,27.02
2023-05-03T12:25:33.018Z,27.01
2023-05-03T12:30:35.730Z,26.96
2023-05-03T12:33:05.180Z,26.94
2023-05-03T12:35:34.534Z,26.93
2023-05-03T12:38:04.820Z,26.93
2023-05-03T12:40:35.157Z,26.92
2023-05-03T12:43:03.790Z,26.92
2023-05-03T12:45:34.557Z,26.91
2023-05-03T12:48:03.844Z,26.90
2023-05-03T12:50:32.976Z,26.88
2023-05-03T12:53:08.437Z,26.90
2023-05-03T12:55:43.367Z,26.90
2023-05-03T12:58:45.359Z,26.89
2023-05-03T13:03:34.335Z,26.88
2023-05-03T13:06:13.147Z,26.85
2023-05-03T13:11:14.089Z,26.85
2023-05-03T13:13:43.117Z,26.84
2023-05-03T13:16:11.774Z,26.83
2023-05-03T13:18:40.041Z,26.86
2023-05-03T13:21:08.571Z,26.86
2023-05-03T13:23:36.816Z,26.87
2023-05-03T13:26:05.396Z,26.87
2023-05-03T13:28:33.667Z,26.87
2023-05-03T13:31:02.004Z,26.89
2023-05-03T13:33:30.202Z,26.89
2023-05-03T13:35:58.502Z,26.87
2023-05-03T13:38:27.227Z,26.88
2023-05-03T13:40:55.460Z,26.88
2023-05-03T13:43:23.677Z,26.87
2023-05-03T13:45:53.057Z,26.87
2023-05-03T13:48:21.833Z,26.89
2023-05-03T13:50:50.161Z,26.89
2023-05-03T13:53:18.565Z,26.88
2023-05-03T13:55:46.773Z,26.89
2023-05-03T13:58:14.997Z,26.88
2023-05-03T14:00:43.198Z,26.89
2023-05-03T14:03:12.317Z,26.90
2023-05-03T14:05:40.738Z,26.90
2023-05-03T14:08:09.034Z,26.89
2023-05-03T14:10:37.448Z,26.89
2023-05-03T14:13:05.961Z,26.89
2023-05-03T14:15:39.558Z,26.89
2023-05-03T14:18:09.002Z,26.91
2023-05-03T14:20:37.424Z,26.90
2023-05-03T14:23:05.661Z,26.90
2023-05-03T14:25:35.039Z,26.91
2023-05-03T14:28:03.496Z,26.91
2023-05-03T14:30:32.072Z,26.92
2023-05-03T14:33:00.606Z,26.92
2023-05-03T14:35:28.964Z,26.92
2023-05-03T14:37:57.203Z,26.92
2023-05-03T14:40:25.640Z,26.92
2023-05-03T14:42:53.866Z,26.93
2023-05-03T14:45:22.141Z,26.94
2023-05-03T14:47:50.368Z,26.94
2023-05-03T14:50:18.727Z,26.94
2023-05-03T14:52:46.885Z,26.96
2023-05-03T14:55:15.418Z,26.95
2023-05-03T14:57:43.636Z,26.96
2023-05-03T15:00:14.582Z,26.97
2023-05-03T15:02:42.920Z,26.97
2023-05-03T15:05:12.141Z,26.97
2023-05-03T15:07:40.812Z,26.97
2023-05-03T15:10:09.260Z,26.97
2023-05-03T15:12:39.326Z,26.96
2023-05-03T15:15:09.848Z,26.97
2023-05-03T15:17:38.185Z,26.99
2023-05-03T15:20:07.559Z,26.98
2023-05-03T15:22:36.963Z,26.97
2023-05-03T15:25:05.999Z,26.98
2023-05-03T15:27:34.266Z,26.97
2023-05-03T15:30:03.141Z,26.96
2023-05-03T15:32:31.645Z,26.97
2023-05-03T15:35:00.216Z,26.98
2023-05-03T15:37:37.759Z,26.96
2023-05-03T15:40:09.531Z,27.01
2023-05-03T15:42:38.325Z,26.99
2023-05-03T15:45:08.755Z,26.97
2023-05-03T15:47:37.423Z,26.97
2023-05-03T15:50:06.868Z,26.98
2023-05-03T15:52:35.420Z,26.98
2023-05-03T15:55:03.744Z,26.97
2023-05-03T15:57:32.995Z,26.97
2023-05-03T16:00:02.229Z,26.97
2023-05-03T16:02:30.879Z,26.97
2023-05-03T16:04:59.215Z,26.96
2023-05-03T16:07:27.585Z,26.97
2023-05-03T16:09:56.118Z,26.97
2023-05-03T16:12:24.820Z,26.97
2023-05-03T16:14:53.086Z,26.97
2023-05-03T16:17:22.225Z,26.97
2023-05-03T16:19:50.474Z,26.96
2023-05-03T16:22:18.692Z,26.96
2023-05-03T16:24:47.497Z,26.96
2023-05-03T16:27:15.869Z,26.95
2023-05-03T16:29:44.097Z,26.94
2023-05-03T16:32:12.505Z,26.94
2023-05-03T16:34:40.875Z,26.95
2023-05-03T16:37:09.126Z,26.95
2023-05-03T16:39:37.815Z,26.94
2023-05-03T16:42:07.612Z,26.94
2023-05-03T16:44:37.025Z,26.94
2023-05-03T16:47:06.136Z,26.94
2023-05-03T16:49:34.902Z,26.94
2023-05-03T16:52:03.464Z,26.93
2023-05-03T16:54:31.694Z,26.93
2023-05-03T16:56:59.815Z,26.94
2023-05-03T16:59:29.113Z,26.94
2023-05-03T17:01:57.377Z,26.92
2023-05-03T17:04:25.919Z,26.92
2023-05-03T17:06:54.655Z,26.92
2023-05-03T17:09:22.966Z,26.92
2023-05-03T17:11:51.516Z,26.92
2023-05-03T17:14:21.763Z,26.93
2023-05-03T17:16:51.362Z,26.92
2023-05-03T17:19:19.681Z,26.92
2023-05-03T17:21:47.945Z,26.92
2023-05-03T17:24:16.177Z,26.91
2023-05-03T17:26:44.388Z,26.91
2023-05-03T17:29:13.477Z,26.92
2023-05-03T17:31:41.766Z,26.91
2023-05-03T17:34:10.029Z,26.91
2023-05-03T17:36:38.240Z,26.90
2023-05-03T17:39:06.506Z,26.90
2023-05-03T17:41:37.148Z,26.89
2023-05-03T17:44:05.496Z,26.89
2023-05-03T17:46:35.434Z,26.89
2023-05-03T17:49:03.886Z,26.88
2023-05-03T17:51:32.510Z,26.88
2023-05-03T17:54:00.878Z,26.86
2023-05-03T17:56:29.066Z,26.85
2023-05-03T17:58:57.854Z,26.87
2023-05-03T18:01:26.270Z,26.86
2023-05-03T18:03:54.573Z,26.88
2023-05-03T18:06:22.857Z,26.88
2023-05-03T18:08:52.006Z,26.88
2023-05-03T18:11:20.330Z,26.89
2023-05-03T18:13:48.672Z,26.90
2023-05-03T18:16:17.246Z,26.91
2023-05-03T18:18:45.651Z,26.92
2023-05-03T18:21:13.902Z,26.92
2023-05-03T18:23:43.164Z,26.93
2023-05-03T18:26:12.642Z,26.94
2023-05-03T18:28:40.871Z,26.94
2023-05-03T18:31:10.538Z,26.91
2023-05-03T18:33:41.647Z,26.87
2023-05-03T18:36:11.811Z,26.86
2023-05-03T18:38:40.104Z,26.85
2023-05-03T18:41:14.564Z,26.84
2023-05-03T18:43:44.005Z,26.87
2023-05-03T18:46:17.410Z,26.84
2023-05-03T18:48:46.677Z,26.87
2023-05-03T18:51:15.169Z,26.85
2023-05-03T18:53:43.771Z,26.87
2023-05-03T18:56:12.119Z,26.85
2023-05-03T18:58:40.392Z,26.85
2023-05-03T19:01:08.720Z,26.85
2023-05-03T19:03:36.973Z,26.84
2023-05-03T19:06:07.806Z,26.84
2023-05-03T19:08:36.146Z,26.84
2023-05-03T19:11:12.986Z,26.83
2023-05-03T19:13:46.341Z,26.85
2023-05-03T19:16:15.838Z,26.84
2023-05-03T19:18:45.584Z,26.83
2023-05-03T19:21:17.337Z,26.85
2023-05-03T19:23:46.186Z,26.87
2023-05-03T19:26:14.388Z,26.86
2023-05-03T19:28:43.869Z,26.86
2023-05-03T19:31:12.176Z,26.87
2023-05-03T19:33:42.823Z,26.83
2023-05-03T19:36:15.045Z,26.77
2023-05-03T19:38:43.686Z,26.72
2023-05-03T19:41:15.876Z,26.73
2023-05-03T19:43:44.098Z,26.76
2023-05-03T19:46:12.666Z,26.76
2023-05-03T19:48:41.293Z,26.76
2023-05-03T19:51:16.489Z,26.78
2023-05-03T19:53:47.218Z,26.81
2023-05-03T19:56:18.591Z,26.82
2023-05-03T19:58:46.807Z,26.80
2023-05-03T20:01:15.076Z,26.80
2023-05-03T20:03:43.371Z,26.82
2023-05-03T20:06:11.621Z,26.84
2023-05-03T20:08:40.066Z,26.85
2023-05-03T20:11:08.284Z,26.86
2023-05-03T20:13:37.082Z,26.87
2023-05-03T20:16:05.724Z,26.88
2023-05-03T20:18:34.093Z,26.90
2023-05-03T20:21:03.717Z,26.91
2023-05-03T20:23:32.373Z,26.91
2023-05-03T20:26:01.922Z,26.92
2023-05-03T20:28:32.547Z,26.94
2023-05-03T20:31:00.910Z,26.97
2023-05-03T20:33:29.201Z,26.98
2023-05-03T20:35:57.418Z,26.99
2023-05-03T20:38:25.619Z,27.00
2023-05-03T20:40:53.879Z,27.02
2023-05-03T20:43:22.538Z,27.04
2023-05-03T20:45:50.931Z,27.05
2023-05-03T20:48:19.336Z,27.07
2023-05-03T20:50:47.639Z,27.08
2023-05-03T20:53:15.984Z,27.08
2023-05-03T20:55:44.154Z,27.04
2023-05-03T20:58:12.615Z,27.02
2023-05-03T21:00:40.835Z,26.97
2023-05-03T21:03:09.064Z,26.94
2023-05-03T21:05:37.298Z,26.94
2023-05-03T21:08:05.862Z,26.96
2023-05-03T21:10:34.115Z,26.96
2023-05-03T21:13:02.288Z,26.97
2023-05-03T21:15:30.561Z,26.98
2023-05-03T21:17:59.085Z,26.98
2023-05-03T21:20:27.381Z,26.98
2023-05-03T21:22:55.532Z,26.99
2023-05-03T21:25:23.931Z,26.99
2023-05-03T21:27:52.952Z,27.01
2023-05-03T21:30:21.254Z,27.01
2023-05-03T21:32:50.171Z,27.04
2023-05-03T21:35:19.102Z,27.04
2023-05-03T21:37:48.286Z,27.06
2023-05-03T21:40:16.719Z,27.08
2023-05-03T21:42:44.971Z,27.11
2023-05-03T21:45:14.556Z,27.12
2023-05-03T21:47:42.828Z,27.12
2023-05-03T21:50:11.270Z,27.11
2023-05-03T21:52:39.530Z,27.10
2023-05-03T21:55:08.655Z,27.11
2023-05-03T21:57:37.281Z,27.09
2023-05-03T22:00:06.790Z,27.08
2023-05-03T22:02:35.355Z,27.07
2023-05-03T22:05:03.826Z,27.06
2023-05-03T22:07:32.081Z,27.05
2023-05-03T22:10:00.310Z,27.03
2023-05-03T22:12:28.634Z,27.02
2023-05-03T22:14:56.854Z,27.01
2023-05-03T22:17:26.257Z,27.01
2023-05-03T22:19:54.465Z,26.99
2023-05-03T22:22:22.674Z,27.00
2023-05-03T22:24:50.896Z,26.99
2023-05-03T22:27:19.138Z,26.97
2023-05-03T22:29:47.388Z,26.98
2023-05-03T22:32:15.726Z,26.95
2023-05-03T22:34:45.264Z,26.96
2023-05-03T22:37:13.518Z,26.95
2023-05-03T22:39:41.810Z,26.94
2023-05-03T22:42:10.049Z,26.94
2023-05-03T22:44:38.277Z,26.94
2023-05-03T22:47:06.494Z,26.93
2023-05-03T22:49:34.709Z,26.92
2023-05-03T22:52:04.356Z,26.90
2023-05-03T22:54:32.583Z,26.90
2023-05-03T22:57:00.818Z,26.89
2023-05-03T22:59:29.064Z,26.89
2023-05-03T23:01:57.373Z,26.88
2023-05-03T23:04:25.552Z,26.89
2023-05-03T23:06:54.008Z,26.87
2023-05-03T23:09:22.213Z,26.87
2023-05-03T23:11:50.455Z,26.87
2023-05-03T23:14:18.625Z,26.89
2023-05-03T23:16:47.261Z,26.90
2023-05-03T23:19:15.482Z,26.89
2023-05-03T23:21:43.712Z,26.89
2023-05-03T23:24:11.856Z,26.90
2023-05-03T23:26:40.498Z,26.90
2023-05-03T23:29:09.681Z,26.89
2023-05-03T23:31:38.745Z,26.90
2023-05-03T23:34:08.152Z,26.90
2023-05-03T23:36:36.394Z,26.90
2023-05-03T23:39:04.725Z,26.89
2023-05-03T23:41:34.169Z,26.91
2023-05-03T23:44:02.447Z,26.90
2023-05-03T23:46:30.689Z,26.90
2023-05-03T23:48:58.854Z,26.91
2023-05-03T23:51:27.060Z,26.90
2023-05-03T23:53:55.255Z,26.91
2023-05-03T23:56:23.786Z,26.90
2023-05-03T23:58:51.994Z,26.91
